Time;durP1;ratioP1;P1;durP2;ratioP2;P2;SDS_P1;SDS_P2;PMS_P1;PMS_P2;Temp;Humidity;BMP_temperature;BMP_pressure;BME280_temperature;BME280_humidity;BME280_pressure;Samples;Min_cycle;Max_cycle;Signal;HPM_P1;HPM_P2
2021/12/15 00:01:09;;;;;;;108.72;37.90;;;;;;;;;;4980168;28;20077;-80
2021/12/15 00:03:35;;;;;;;113.15;39.17;;;;;;;;;;4980787;28;20038;-81
2021/12/15 00:06:01;;;;;;;103.88;37.35;;;;;;;;;;4983211;28;20042;-81
2021/12/15 00:08:27;;;;;;;107.45;38.90;;;;;;;;;;4977046;28;20533;-81
2021/12/15 00:10:54;;;;;;;110.78;37.97;;;;;;;;;;4980638;28;20045;-81
2021/12/15 00:13:21;;;;;;;91.82;35.45;;;;;;;;;;4981568;28;20042;-81
2021/12/15 00:15:48;;;;;;;98.80;36.42;;;;;;;;;;4973909;28;20046;-80
2021/12/15 00:18:14;;;;;;;113.90;40.17;;;;;;;;;;4977832;28;20035;-81
2021/12/15 00:20:42;;;;;;;93.93;35.90;;;;;;;;;;4982732;28;20070;-81
2021/12/15 00:23:08;;;;;;;106.55;38.53;;;;;;;;;;4982073;28;20047;-81
2021/12/15 00:25:36;;;;;;;97.97;36.33;;;;;;;;;;4988195;28;20049;-81
2021/12/15 00:28:02;;;;;;;105.97;37.42;;;;;;;;;;4977926;28;20050;-81
2021/12/15 00:30:28;;;;;;;90.13;35.83;;;;;;;;;;4970379;28;20479;-80
2021/12/15 00:32:55;;;;;;;91.38;36.03;;;;;;;;;;4979210;28;20686;-80
2021/12/15 00:35:22;;;;;;;87.85;35.42;;;;;;;;;;4976178;28;20047;-81
2021/12/15 00:37:48;;;;;;;79.82;33.90;;;;;;;;;;4972758;28;20545;-81
2021/12/15 00:40:15;;;;;;;90.32;35.38;;;;;;;;;;4992655;28;20090;-81
2021/12/15 00:42:41;;;;;;;78.07;34.40;;;;;;;;;;4978669;28;20089;-80
2021/12/15 00:45:08;;;;;;;79.93;32.92;;;;;;;;;;4985330;28;20050;-80
2021/12/15 00:47:34;;;;;;;78.25;35.08;;;;;;;;;;4975560;28;20054;-80
2021/12/15 00:50:06;;;;;;;75.70;33.88;;;;;;;;;;4976211;28;20042;-81
2021/12/15 00:52:32;;;;;;;77.18;33.30;;;;;;;;;;4980021;28;20058;-80
2021/12/15 00:54:58;;;;;;;78.35;34.20;;;;;;;;;;4982224;28;20042;-81
2021/12/15 00:57:24;;;;;;;81.47;36.33;;;;;;;;;;4973745;28;20070;-81
2021/12/15 00:59:51;;;;;;;81.20;35.45;;;;;;;;;;4978454;28;20066;-81
2021/12/15 01:02:17;;;;;;;78.90;34.40;;;;;;;;;;4982214;28;20046;-80
2021/12/15 01:04:43;;;;;;;79.57;32.38;;;;;;;;;;4981149;28;20046;-81
2021/12/15 01:07:09;;;;;;;83.13;35.80;;;;;;;;;;4981681;28;20045;-82
2021/12/15 01:09:44;;;;;;;73.35;33.83;;;;;;;;;;4972776;28;20037;-80
2021/12/15 01:20:26;;;;;;;67.80;32.60;;;;;;;;;;4982832;28;20407;-80
2021/12/15 01:22:53;;;;;;;74.78;34.38;;;;;;;;;;4979053;28;20050;-83
2021/12/15 01:25:25;;;;;;;73.45;33.30;;;;;;;;;;4981994;28;20030;-81
2021/12/15 01:27:53;;;;;;;86.88;34.08;;;;;;;;;;4983248;28;20124;-81
2021/12/15 01:30:21;;;;;;;71.80;31.60;;;;;;;;;;4981245;28;20041;-81
2021/12/15 01:32:48;;;;;;;75.72;34.20;;;;;;;;;;4980848;28;20137;-83
2021/12/15 01:35:15;;;;;;;80.47;34.55;;;;;;;;;;4974954;28;20077;-82
2021/12/15 01:37:41;;;;;;;85.00;33.25;;;;;;;;;;4972519;28;20035;-81
2021/12/15 01:40:08;;;;;;;76.63;34.90;;;;;;;;;;4972560;28;20031;-81
2021/12/15 01:42:35;;;;;;;71.05;32.30;;;;;;;;;;4969532;28;20397;-80
2021/12/15 01:47:47;;;;;;;68.10;32.42;;;;;;;;;;4977697;28;20057;-81
2021/12/15 01:50:13;;;;;;;78.95;34.95;;;;;;;;;;4979433;28;20041;-81
2021/12/15 01:52:41;;;;;;;68.25;31.77;;;;;;;;;;4974785;28;20038;-81
2021/12/15 01:55:12;;;;;;;67.50;30.73;;;;;;;;;;4966834;28;20039;-81
2021/12/15 01:57:39;;;;;;;69.00;28.98;;;;;;;;;;4972606;28;20400;-82
2021/12/15 02:00:08;;;;;;;69.38;30.60;;;;;;;;;;4971155;28;20517;-81
2021/12/15 02:02:34;;;;;;;69.22;32.05;;;;;;;;;;4955973;28;20043;-80
2021/12/15 02:05:00;;;;;;;68.35;33.53;;;;;;;;;;4958331;28;20042;-81
2021/12/15 02:07:26;;;;;;;69.53;30.02;;;;;;;;;;4973225;28;20085;-82
2021/12/15 02:12:22;;;;;;;71.60;32.15;;;;;;;;;;4971048;28;20057;-80
2021/12/15 02:14:49;;;;;;;61.80;30.88;;;;;;;;;;4970524;28;20051;-81
2021/12/15 02:17:15;;;;;;;76.30;35.55;;;;;;;;;;4969162;28;20055;-82
2021/12/15 02:19:41;;;;;;;71.57;33.53;;;;;;;;;;4980315;28;20046;-81
2021/12/15 02:22:07;;;;;;;78.05;34.67;;;;;;;;;;4962580;28;20379;-81
2021/12/15 02:24:35;;;;;;;68.43;32.80;;;;;;;;;;4977635;28;20113;-81
2021/12/15 02:27:02;;;;;;;75.60;34.58;;;;;;;;;;4975709;28;20070;-81
2021/12/15 02:29:33;;;;;;;72.65;33.92;;;;;;;;;;4966653;28;20130;-81
2021/12/15 02:32:12;;;;;;;85.05;34.15;;;;;;;;;;4973309;28;20056;-81
2021/12/15 02:37:17;;;;;;;79.63;35.15;;;;;;;;;;4970581;28;20055;-80
2021/12/15 02:39:45;;;;;;;72.72;35.78;;;;;;;;;;4967969;28;20050;-81
2021/12/15 02:42:11;;;;;;;75.80;34.42;;;;;;;;;;4968864;28;20041;-81
2021/12/15 02:44:43;;;;;;;70.45;34.50;;;;;;;;;;4977296;28;20607;-81
2021/12/15 02:47:09;;;;;;;91.50;36.67;;;;;;;;;;4969560;28;20499;-80
2021/12/15 02:49:35;;;;;;;59.90;30.23;;;;;;;;;;4978704;28;20548;-81
2021/12/15 02:52:01;;;;;;;83.63;37.97;;;;;;;;;;4975962;28;20051;-82
2021/12/15 02:54:28;;;;;;;71.07;34.03;;;;;;;;;;4973860;28;20525;-81
2021/12/15 02:56:57;;;;;;;66.82;33.33;;;;;;;;;;4984050;28;20068;-82
2021/12/15 02:59:25;;;;;;;78.72;35.83;;;;;;;;;;4981691;28;20413;-81
2021/12/15 03:05:02;;;;;;;67.53;33.60;;;;;;;;;;4950324;28;20054;-81
2021/12/15 03:16:02;;;;;;;79.97;35.13;;;;;;;;;;4975898;28;20080;-82
2021/12/15 03:18:29;;;;;;;73.97;34.38;;;;;;;;;;4974443;28;20058;-82
2021/12/15 03:21:04;;;;;;;71.03;34.50;;;;;;;;;;4966931;28;20161;-81
2021/12/15 03:23:37;;;;;;;70.22;32.10;;;;;;;;;;4978388;28;20055;-80
2021/12/15 03:26:03;;;;;;;80.40;33.53;;;;;;;;;;4960112;28;20043;-82
2021/12/15 03:36:40;;;;;;;76.05;33.72;;;;;;;;;;4974399;28;20442;-81
2021/12/15 03:39:08;;;;;;;69.85;31.98;;;;;;;;;;4975807;28;20198;-80
2021/12/15 03:41:34;;;;;;;72.10;35.63;;;;;;;;;;4980655;28;20133;-80
2021/12/15 03:44:02;;;;;;;72.03;34.13;;;;;;;;;;4978905;28;20085;-81
2021/12/15 03:46:29;;;;;;;82.72;36.90;;;;;;;;;;4971999;28;20038;-80
2021/12/15 03:48:55;;;;;;;80.03;36.80;;;;;;;;;;4974176;28;20046;-82
2021/12/15 03:51:21;;;;;;;74.35;35.08;;;;;;;;;;4979291;28;20514;-82
2021/12/15 03:53:47;;;;;;;77.85;35.38;;;;;;;;;;4978185;28;20053;-81
2021/12/15 03:56:15;;;;;;;78.15;34.60;;;;;;;;;;4978324;28;20422;-81
2021/12/15 03:58:41;;;;;;;76.07;35.65;;;;;;;;;;4982626;28;22258;-80
2021/12/15 04:01:11;;;;;;;76.35;36.65;;;;;;;;;;4980687;28;20438;-81
2021/12/15 04:03:39;;;;;;;79.00;37.10;;;;;;;;;;4977633;28;20046;-81
2021/12/15 04:06:07;;;;;;;76.18;36.33;;;;;;;;;;4976096;28;20451;-81
2021/12/15 04:08:34;;;;;;;78.38;36.15;;;;;;;;;;4975297;28;20042;-81
2021/12/15 04:11:01;;;;;;;77.50;33.70;;;;;;;;;;4972596;28;20035;-81
2021/12/15 04:13:27;;;;;;;71.72;35.72;;;;;;;;;;4978131;28;20502;-80
2021/12/15 04:15:57;;;;;;;79.45;36.83;;;;;;;;;;4974624;28;20130;-80
2021/12/15 04:18:24;;;;;;;73.82;35.33;;;;;;;;;;4980236;28;20142;-80
2021/12/15 04:20:50;;;;;;;82.93;36.40;;;;;;;;;;4980766;28;20065;-80
2021/12/15 04:23:20;;;;;;;79.90;35.92;;;;;;;;;;4972302;28;20061;-80
2021/12/15 04:25:49;;;;;;;72.93;38.22;;;;;;;;;;4979294;28;20047;-80
2021/12/15 04:28:17;;;;;;;81.82;37.03;;;;;;;;;;4981640;28;20517;-81
2021/12/15 04:30:48;;;;;;;73.95;35.42;;;;;;;;;;4982504;28;20130;-81
2021/12/15 04:33:27;;;;;;;79.80;40.40;;;;;;;;;;4982718;28;20049;-81
2021/12/15 04:35:54;;;;;;;78.88;39.42;;;;;;;;;;4980088;28;20054;-80
2021/12/15 04:38:21;;;;;;;77.93;38.10;;;;;;;;;;4975449;28;20418;-81
2021/12/15 04:40:47;;;;;;;78.18;38.20;;;;;;;;;;4982479;28;20384;-80
2021/12/15 04:43:13;;;;;;;82.63;40.47;;;;;;;;;;4980979;28;20038;-79
2021/12/15 04:45:40;;;;;;;80.28;39.45;;;;;;;;;;4979108;28;20429;-79
2021/12/15 04:48:06;;;;;;;81.18;39.78;;;;;;;;;;4977645;28;20057;-80
2021/12/15 04:50:32;;;;;;;81.25;40.65;;;;;;;;;;4973335;28;20038;-80
2021/12/15 04:53:00;;;;;;;90.65;41.72;;;;;;;;;;4974808;28;20043;-80
2021/12/15 04:55:28;;;;;;;76.00;37.05;;;;;;;;;;4982797;28;20085;-80
2021/12/15 04:57:55;;;;;;;83.82;39.10;;;;;;;;;;4986231;28;20046;-79
2021/12/15 05:00:26;;;;;;;81.90;38.80;;;;;;;;;;4980947;28;20144;-80
2021/12/15 05:02:52;;;;;;;78.75;37.38;;;;;;;;;;4980882;28;20065;-79
2021/12/15 05:05:19;;;;;;;80.70;39.97;;;;;;;;;;4980824;28;21913;-80
2021/12/15 05:07:45;;;;;;;79.32;40.33;;;;;;;;;;4977178;28;20046;-78
2021/12/15 05:10:11;;;;;;;74.68;36.95;;;;;;;;;;4960947;28;20050;-80
2021/12/15 05:12:38;;;;;;;83.72;38.90;;;;;;;;;;4978360;28;20054;-80
2021/12/15 05:15:05;;;;;;;79.00;37.42;;;;;;;;;;4977312;28;20073;-80
2021/12/15 05:17:31;;;;;;;78.50;37.53;;;;;;;;;;4984237;28;20057;-80
2021/12/15 05:20:02;;;;;;;72.85;35.67;;;;;;;;;;4985729;28;20481;-79
2021/12/15 05:22:28;;;;;;;70.95;35.80;;;;;;;;;;4968500;28;20085;-80
2021/12/15 05:24:54;;;;;;;74.75;37.08;;;;;;;;;;4969350;28;20124;-79
2021/12/15 05:27:20;;;;;;;72.45;37.17;;;;;;;;;;4967869;28;20575;-79
2021/12/15 05:29:48;;;;;;;70.70;34.83;;;;;;;;;;4967343;28;20097;-79
2021/12/15 05:32:18;;;;;;;70.70;34.67;;;;;;;;;;4972377;28;20042;-79
2021/12/15 05:34:44;;;;;;;73.53;36.85;;;;;;;;;;4977099;28;20046;-81
2021/12/15 05:37:11;;;;;;;70.72;36.45;;;;;;;;;;4972778;28;20050;-80
2021/12/15 05:39:38;;;;;;;66.57;31.27;;;;;;;;;;4970613;28;20043;-81
2021/12/15 05:42:04;;;;;;;67.30;31.08;;;;;;;;;;4974425;28;20396;-80
2021/12/15 05:44:30;;;;;;;66.88;32.22;;;;;;;;;;4993253;28;20093;-80
2021/12/15 05:46:57;;;;;;;73.68;37.92;;;;;;;;;;4970981;28;20058;-79
2021/12/15 05:49:23;;;;;;;75.35;36.47;;;;;;;;;;4972474;28;20073;-79
2021/12/15 05:51:50;;;;;;;63.45;34.25;;;;;;;;;;4970546;28;20469;-79
2021/12/15 05:54:16;;;;;;;72.07;33.53;;;;;;;;;;4970738;28;20129;-81
2021/12/15 05:56:42;;;;;;;72.53;35.03;;;;;;;;;;4975111;28;20440;-81
2021/12/15 05:59:08;;;;;;;72.82;34.78;;;;;;;;;;4981546;28;20047;-82
2021/12/15 06:01:34;;;;;;;78.53;34.65;;;;;;;;;;4973146;28;20053;-81
2021/12/15 06:04:00;;;;;;;81.88;34.45;;;;;;;;;;4967067;28;20043;-81
2021/12/15 06:06:27;;;;;;;70.03;34.90;;;;;;;;;;4969477;28;20035;-81
2021/12/15 06:08:54;;;;;;;67.55;35.13;;;;;;;;;;4980822;28;20473;-81
2021/12/15 06:11:20;;;;;;;74.72;36.15;;;;;;;;;;4979417;28;20101;-81
2021/12/15 06:13:48;;;;;;;74.85;33.25;;;;;;;;;;4972799;28;20038;-81
2021/12/15 06:16:15;;;;;;;76.15;34.17;;;;;;;;;;4971985;28;20051;-81
2021/12/15 06:18:41;;;;;;;76.35;34.30;;;;;;;;;;4977419;28;20089;-81
2021/12/15 06:21:07;;;;;;;67.40;31.60;;;;;;;;;;4973729;28;20061;-81
2021/12/15 06:23:33;;;;;;;76.50;34.90;;;;;;;;;;4970874;28;20047;-81
2021/12/15 06:26:01;;;;;;;79.40;35.90;;;;;;;;;;4969645;28;20057;-82
2021/12/15 06:28:29;;;;;;;72.10;33.38;;;;;;;;;;4971016;28;20042;-81
2021/12/15 06:30:56;;;;;;;77.60;35.50;;;;;;;;;;4976480;28;20038;-81
2021/12/15 06:33:23;;;;;;;74.72;35.05;;;;;;;;;;4989133;28;20137;-82
2021/12/15 06:35:53;;;;;;;77.60;35.28;;;;;;;;;;4987184;28;20109;-81
2021/12/15 06:38:21;;;;;;;87.28;37.42;;;;;;;;;;4986145;28;20410;-81
2021/12/15 06:40:47;;;;;;;72.88;34.90;;;;;;;;;;4984722;28;20042;-81
2021/12/15 06:43:13;;;;;;;76.22;34.28;;;;;;;;;;4983744;28;20046;-81
2021/12/15 06:45:52;;;;;;;78.38;36.28;;;;;;;;;;4985410;28;20038;-81
2021/12/15 06:59:18;;;;;;;76.80;33.78;;;;;;;;;;4970924;28;20128;-82
2021/12/15 07:01:44;;;;;;;74.97;35.33;;;;;;;;;;4976409;28;20050;-82
2021/12/15 07:04:10;;;;;;;74.63;34.28;;;;;;;;;;4975240;28;20054;-82
2021/12/15 07:06:36;;;;;;;75.43;34.85;;;;;;;;;;4975596;28;20046;-83
2021/12/15 07:09:06;;;;;;;73.28;35.03;;;;;;;;;;4979588;28;20169;-82
2021/12/15 07:11:32;;;;;;;76.68;34.88;;;;;;;;;;4973042;28;20039;-82
2021/12/15 07:13:58;;;;;;;66.80;33.63;;;;;;;;;;4978815;28;20077;-81
2021/12/15 07:16:25;;;;;;;76.97;35.17;;;;;;;;;;4961360;28;20049;-82
2021/12/15 07:19:08;;;;;;;79.30;35.95;;;;;;;;;;4978276;28;20046;-83
2021/12/15 07:21:37;;;;;;;74.65;35.50;;;;;;;;;;4975974;28;20066;-83
2021/12/15 07:24:03;;;;;;;76.50;34.85;;;;;;;;;;4983736;28;20054;-83
2021/12/15 07:26:29;;;;;;;66.50;31.58;;;;;;;;;;4965156;28;20118;-83
2021/12/15 07:28:56;;;;;;;66.90;32.30;;;;;;;;;;4980636;28;20062;-83
2021/12/15 07:31:22;;;;;;;67.28;32.25;;;;;;;;;;4971585;28;20050;-82
2021/12/15 07:33:48;;;;;;;75.40;33.10;;;;;;;;;;4975024;28;20113;-80
2021/12/15 07:36:16;;;;;;;61.08;31.20;;;;;;;;;;4975065;28;20035;-82
2021/12/15 07:38:42;;;;;;;77.18;34.97;;;;;;;;;;4982381;28;20160;-81
2021/12/15 07:41:28;;;;;;;73.10;31.98;;;;;;;;;;4978753;28;20051;-83
2021/12/15 07:43:58;;;;;;;66.03;30.85;;;;;;;;;;4969852;28;20518;-82
2021/12/15 07:46:25;;;;;;;67.78;31.02;;;;;;;;;;4978951;28;20046;-83
2021/12/15 07:48:51;;;;;;;76.28;33.55;;;;;;;;;;4975987;28;20140;-83
2021/12/15 07:51:17;;;;;;;59.15;29.75;;;;;;;;;;4974834;28;20137;-82
2021/12/15 07:53:44;;;;;;;74.40;33.05;;;;;;;;;;4976447;28;20884;-82
2021/12/15 07:56:11;;;;;;;56.47;25.77;;;;;;;;;;4973784;28;20042;-82
2021/12/15 07:58:37;;;;;;;73.18;32.35;;;;;;;;;;4969154;28;20039;-83
2021/12/15 08:01:04;;;;;;;63.55;30.67;;;;;;;;;;4973247;28;20059;-83
2021/12/15 08:03:32;;;;;;;61.50;29.33;;;;;;;;;;4982115;28;20053;-82
2021/12/15 08:05:58;;;;;;;55.22;27.92;;;;;;;;;;4982977;28;20089;-82
2021/12/15 08:08:24;;;;;;;60.47;29.65;;;;;;;;;;4985589;28;20491;-82
2021/12/15 08:10:56;;;;;;;60.25;28.33;;;;;;;;;;4975223;28;20572;-82
2021/12/15 08:13:23;;;;;;;63.28;29.05;;;;;;;;;;4983273;28;20426;-82
2021/12/15 08:15:49;;;;;;;54.70;28.17;;;;;;;;;;4981737;28;20125;-82
2021/12/15 08:18:15;;;;;;;59.85;28.30;;;;;;;;;;4987197;28;20030;-82
2021/12/15 08:20:41;;;;;;;49.50;25.63;;;;;;;;;;4982621;28;20051;-83
2021/12/15 08:23:07;;;;;;;53.72;25.75;;;;;;;;;;4969585;28;20521;-82
2021/12/15 08:25:35;;;;;;;53.45;24.58;;;;;;;;;;4980858;28;20047;-82
2021/12/15 08:28:01;;;;;;;56.75;27.67;;;;;;;;;;4987964;28;20038;-83
2021/12/15 08:30:29;;;;;;;49.85;25.58;;;;;;;;;;4980947;28;20104;-82
2021/12/15 08:32:57;;;;;;;46.25;24.17;;;;;;;;;;4979774;28;20045;-82
2021/12/15 08:35:28;;;;;;;49.42;23.30;;;;;;;;;;4976899;28;20078;-83
2021/12/15 08:37:54;;;;;;;42.17;24.42;;;;;;;;;;4986347;28;20042;-84
2021/12/15 08:40:21;;;;;;;40.40;17.90;;;;;;;;;;4969740;28;20042;-84
2021/12/15 08:42:47;;;;;;;33.72;19.83;;;;;;;;;;4967029;28;20503;-83
2021/12/15 08:45:14;;;;;;;42.40;22.02;;;;;;;;;;4971269;28;20046;-83
2021/12/15 08:47:40;;;;;;;35.38;18.38;;;;;;;;;;4973349;28;20058;-82
2021/12/15 08:50:09;;;;;;;34.53;18.70;;;;;;;;;;4985005;28;20038;-83
2021/12/15 08:52:35;;;;;;;32.90;16.90;;;;;;;;;;4972246;28;20039;-82
2021/12/15 08:55:01;;;;;;;36.03;18.08;;;;;;;;;;4969443;28;20050;-82
2021/12/15 08:57:27;;;;;;;39.60;17.75;;;;;;;;;;4977796;28;20058;-83
2021/12/15 08:59:54;;;;;;;34.67;18.27;;;;;;;;;;4968411;28;20042;-83
2021/12/15 09:02:20;;;;;;;36.40;17.15;;;;;;;;;;4985979;28;20153;-83
2021/12/15 09:04:46;;;;;;;30.95;15.75;;;;;;;;;;4988610;28;20042;-83
2021/12/15 09:07:12;;;;;;;35.42;17.15;;;;;;;;;;4981385;28;20054;-82
2021/12/15 09:09:38;;;;;;;34.25;18.02;;;;;;;;;;4980843;28;20039;-81
2021/12/15 09:12:05;;;;;;;36.53;18.27;;;;;;;;;;5000461;28;20493;-82
2021/12/15 09:14:31;;;;;;;34.92;16.75;;;;;;;;;;4991432;28;20054;-82
2021/12/15 09:17:03;;;;;;;30.92;15.45;;;;;;;;;;4999454;28;20084;-82
2021/12/15 09:19:30;;;;;;;26.75;14.05;;;;;;;;;;4981699;28;20034;-83
2021/12/15 09:21:57;;;;;;;30.42;15.57;;;;;;;;;;4988460;28;20122;-83
2021/12/15 09:24:24;;;;;;;29.67;13.98;;;;;;;;;;4970011;28;20085;-83
2021/12/15 09:26:51;;;;;;;29.83;15.57;;;;;;;;;;4969352;28;20133;-83
2021/12/15 09:29:17;;;;;;;23.73;10.98;;;;;;;;;;4984136;28;20069;-82
2021/12/15 09:31:43;;;;;;;33.28;17.40;;;;;;;;;;4977162;28;20050;-83
2021/12/15 09:34:17;;;;;;;31.92;14.38;;;;;;;;;;4990254;28;20117;-83
2021/12/15 09:36:43;;;;;;;35.75;14.75;;;;;;;;;;4989133;28;20049;-83
2021/12/15 09:39:14;;;;;;;33.80;16.52;;;;;;;;;;4993010;28;20112;-83
2021/12/15 09:41:41;;;;;;;35.90;15.38;;;;;;;;;;4987570;28;20050;-82
2021/12/15 09:44:11;;;;;;;28.55;15.90;;;;;;;;;;4971036;28;20042;-82
2021/12/15 10:01:53;;;;;;;34.35;16.73;;;;;;;;;;4990003;28;20082;-82
2021/12/15 10:03:16;;;;;;;32.17;15.45;;;;;;;;;;5002621;28;20064;-83
2021/12/15 10:06:08;;;;;;;32.05;16.25;;;;;;;;;;5005660;28;20038;-83
2021/12/15 10:19:46;;;;;;;35.42;14.55;;;;;;;;;;5000313;28;20124;-82
2021/12/15 10:22:13;;;;;;;29.23;12.95;;;;;;;;;;4982534;28;20141;-83
2021/12/15 10:24:45;;;;;;;28.02;12.45;;;;;;;;;;4991378;28;20046;-82
2021/12/15 10:27:13;;;;;;;23.63;12.25;;;;;;;;;;4986378;28;20049;-82
2021/12/15 10:29:57;;;;;;;21.88;10.63;;;;;;;;;;4975954;28;20030;-82
2021/12/15 10:32:31;;;;;;;22.45;11.20;;;;;;;;;;4994234;28;20053;-82
2021/12/15 10:35:05;;;;;;;24.55;10.77;;;;;;;;;;4974724;28;20612;-82
2021/12/15 10:37:31;;;;;;;20.75;10.10;;;;;;;;;;4988093;28;20077;-82
2021/12/15 10:40:11;;;;;;;19.58;9.48;;;;;;;;;;4985744;28;20038;-82
2021/12/15 10:42:38;;;;;;;21.45;11.07;;;;;;;;;;5006092;28;20081;-82
2021/12/15 10:45:08;;;;;;;19.17;9.45;;;;;;;;;;4989307;28;20034;-82
2021/12/15 10:47:50;;;;;;;17.83;9.35;;;;;;;;;;4987768;28;20580;-82
2021/12/15 10:50:20;;;;;;;17.40;9.13;;;;;;;;;;4967944;28;20060;-82
2021/12/15 10:52:54;;;;;;;15.77;9.75;;;;;;;;;;4948620;28;20042;-83
2021/12/15 10:55:20;;;;;;;;;;;;;;;;;;4967560;28;20047;-82
2021/12/15 10:57:46;;;;;;;15.25;8.60;;;;;;;;;;4964029;28;20347;-82
2021/12/15 11:00:14;;;;;;;14.32;8.77;;;;;;;;;;4945113;28;20111;-82
2021/12/15 11:02:40;;;;;;;17.90;8.63;;;;;;;;;;4949837;28;20078;-82
2021/12/15 11:05:09;;;;;;;14.68;8.45;;;;;;;;;;4963649;28;20512;-83
2021/12/15 11:07:41;;;;;;;21.20;8.30;;;;;;;;;;4953120;28;20050;-82
2021/12/15 11:10:11;;;;;;;12.70;7.72;;;;;;;;;;4952184;28;20093;-82
2021/12/15 11:12:38;;;;;;;16.98;8.50;;;;;;;;;;4970620;28;20050;-82
2021/12/15 11:15:23;;;;;;;15.98;8.32;;;;;;;;;;4955358;28;20051;-82
2021/12/15 11:18:09;;;;;;;15.27;7.28;;;;;;;;;;4969485;28;20039;-82
2021/12/15 11:20:40;;;;;;;17.00;8.32;;;;;;;;;;4952751;28;20047;-84
2021/12/15 11:23:06;;;;;;;12.75;7.93;;;;;;;;;;4936031;28;20054;-82
2021/12/15 11:25:35;;;;;;;14.65;8.32;;;;;;;;;;4970430;28;20502;-82
2021/12/15 11:28:04;;;;;;;19.80;9.48;;;;;;;;;;4970878;28;20050;-82
2021/12/15 11:30:38;;;;;;;16.70;8.73;;;;;;;;;;4941769;28;20040;-81
2021/12/15 11:33:07;;;;;;;18.40;9.15;;;;;;;;;;4941975;28;20495;-82
2021/12/15 11:35:38;;;;;;;13.38;7.30;;;;;;;;;;4938064;28;20054;-81
2021/12/15 11:38:07;;;;;;;15.45;8.20;;;;;;;;;;4921706;28;20582;-82
2021/12/15 11:40:39;;;;;;;15.10;8.43;;;;;;;;;;4954453;28;20047;-82
2021/12/15 11:43:05;;;;;;;16.58;8.90;;;;;;;;;;4935246;29;20126;-82
2021/12/15 11:45:32;;;;;;;21.52;10.25;;;;;;;;;;4950552;28;20051;-82
2021/12/15 11:48:10;;;;;;;17.00;8.95;;;;;;;;;;4955686;28;20771;-82
2021/12/15 11:50:38;;;;;;;15.43;8.68;;;;;;;;;;4994154;28;20521;-82
2021/12/15 11:53:04;;;;;;;17.02;8.95;;;;;;;;;;5008893;28;20514;-82
2021/12/15 11:55:33;;;;;;;16.10;8.38;;;;;;;;;;4994057;28;20057;-82
2021/12/15 11:58:00;;;;;;;17.08;7.93;;;;;;;;;;4990346;28;20478;-82
2021/12/15 12:00:28;;;;;;;27.45;8.68;;;;;;;;;;4982479;28;20234;-82
2021/12/15 12:02:58;;;;;;;19.63;7.50;;;;;;;;;;4976469;28;20052;-82
2021/12/15 12:05:26;;;;;;;12.82;7.65;;;;;;;;;;4998615;28;20046;-82
2021/12/15 12:07:57;;;;;;;15.95;7.45;;;;;;;;;;4995916;28;20130;-82
2021/12/15 12:10:47;;;;;;;13.88;7.40;;;;;;;;;;5002188;28;20147;-82
2021/12/15 12:13:20;;;;;;;18.85;7.97;;;;;;;;;;4990446;28;20046;-82
2021/12/15 12:15:47;;;;;;;14.82;7.50;;;;;;;;;;4988336;28;20061;-83
2021/12/15 12:18:15;;;;;;;16.92;7.55;;;;;;;;;;4989383;28;20097;-82
2021/12/15 12:20:43;;;;;;;16.38;7.03;;;;;;;;;;5001924;28;20046;-82
2021/12/15 12:23:11;;;;;;;19.33;8.15;;;;;;;;;;5005748;28;20050;-81
2021/12/15 12:25:39;;;;;;;18.60;8.27;;;;;;;;;;5008240;28;20060;-82
2021/12/15 12:28:07;;;;;;;20.48;8.23;;;;;;;;;;4991896;28;20061;-82
2021/12/15 12:30:38;;;;;;;16.05;8.32;;;;;;;;;;4998390;28;20037;-82
2021/12/15 12:33:08;;;;;;;21.83;8.80;;;;;;;;;;5007645;28;20050;-82
2021/12/15 12:35:35;;;;;;;18.67;8.55;;;;;;;;;;4994383;28;20089;-82
2021/12/15 12:38:18;;;;;;;16.05;9.02;;;;;;;;;;4972862;28;20479;-82
2021/12/15 12:40:56;;;;;;;18.38;8.45;;;;;;;;;;4983424;28;20096;-81
2021/12/15 12:43:25;;;;;;;13.60;7.57;;;;;;;;;;4989332;28;20401;-82
2021/12/15 12:45:56;;;;;;;20.60;7.32;;;;;;;;;;5002287;28;20053;-83
2021/12/15 12:59:25;;;;;;;18.35;4.88;;;;;;;;;;4997806;28;20133;-81
2021/12/15 13:01:51;;;;;;;10.90;3.83;;;;;;;;;;4991451;28;20526;-82
2021/12/15 13:04:17;;;;;;;11.20;3.88;;;;;;;;;;4981530;28;20388;-82
2021/12/15 13:06:44;;;;;;;15.00;4.03;;;;;;;;;;4982088;28;20048;-83
2021/12/15 13:09:19;;;;;;;15.30;5.13;;;;;;;;;;4980562;28;20053;-82
2021/12/15 13:11:49;;;;;;;11.02;4.45;;;;;;;;;;4961327;28;20127;-82
2021/12/15 13:14:18;;;;;;;9.65;3.90;;;;;;;;;;4980979;28;20053;-82
2021/12/15 13:16:53;;;;;;;9.32;4.18;;;;;;;;;;4981360;28;20963;-82
2021/12/15 13:19:22;;;;;;;13.98;4.40;;;;;;;;;;4978278;28;20113;-82
2021/12/15 13:30:45;;;;;;;12.45;3.83;;;;;;;;;;4985475;28;20070;-82
2021/12/15 13:33:15;;;;;;;6.32;3.00;;;;;;;;;;4982308;28;20049;-82
2021/12/15 13:36:01;;;;;;;7.28;2.50;;;;;;;;;;4979737;28;20039;-82
2021/12/15 13:38:37;;;;;;;5.00;2.13;;;;;;;;;;4973405;28;20051;-82
2021/12/15 13:41:06;;;;;;;9.38;2.30;;;;;;;;;;4978029;28;20038;-82
2021/12/15 13:43:38;;;;;;;10.85;2.10;;;;;;;;;;4983125;28;20051;-82
2021/12/15 13:46:06;;;;;;;10.00;2.42;;;;;;;;;;4985802;28;20149;-82
2021/12/15 13:48:51;;;;;;;5.60;2.15;;;;;;;;;;4980975;28;20053;-84
2021/12/15 13:51:17;;;;;;;9.07;2.70;;;;;;;;;;4979186;28;20054;-84
2021/12/15 13:53:43;;;;;;;6.68;2.08;;;;;;;;;;4976970;28;20072;-84
2021/12/15 13:56:09;;;;;;;6.47;1.85;;;;;;;;;;4984837;28;20085;-82
2021/12/15 13:58:35;;;;;;;7.65;2.03;;;;;;;;;;4978474;28;20424;-82
2021/12/15 14:01:05;;;;;;;8.30;2.10;;;;;;;;;;4979444;28;20867;-83
2021/12/15 14:03:48;;;;;;;4.28;2.25;;;;;;;;;;4977081;28;20052;-83
2021/12/15 14:06:19;;;;;;;7.32;1.98;;;;;;;;;;5002317;28;20049;-82
2021/12/15 14:08:47;;;;;;;9.13;2.00;;;;;;;;;;4991878;28;20054;-83
2021/12/15 14:11:20;;;;;;;6.30;1.80;;;;;;;;;;4999016;28;20030;-83
2021/12/15 14:13:49;;;;;;;5.20;2.10;;;;;;;;;;4993191;28;20098;-83
2021/12/15 14:16:27;;;;;;;5.03;2.30;;;;;;;;;;5006522;28;20053;-82
2021/12/15 14:18:53;;;;;;;4.43;1.98;;;;;;;;;;4992054;28;20719;-82
2021/12/15 14:21:20;;;;;;;5.70;2.42;;;;;;;;;;4984716;28;20406;-83
2021/12/15 14:23:47;;;;;;;7.50;1.95;;;;;;;;;;4957652;28;20050;-83
2021/12/15 14:26:15;;;;;;;4.18;2.25;;;;;;;;;;4986821;28;20074;-83
2021/12/15 14:28:43;;;;;;;7.63;2.20;;;;;;;;;;4981947;28;20049;-83
2021/12/15 14:31:12;;;;;;;7.45;2.10;;;;;;;;;;4977607;28;20073;-82
2021/12/15 14:33:43;;;;;;;4.97;2.05;;;;;;;;;;5002230;28;20037;-83
2021/12/15 14:36:21;;;;;;;6.60;2.10;;;;;;;;;;4984420;28;20041;-83
2021/12/15 14:38:55;;;;;;;5.63;2.15;;;;;;;;;;4984346;28;20047;-83
2021/12/15 14:41:29;;;;;;;7.82;2.85;;;;;;;;;;4983469;28;20449;-83
2021/12/15 14:44:02;;;;;;;7.53;2.13;;;;;;;;;;4986567;28;20152;-83
2021/12/15 14:46:29;;;;;;;4.18;2.08;;;;;;;;;;4987653;28;20110;-82
2021/12/15 14:49:13;;;;;;;6.28;2.10;;;;;;;;;;4986608;28;20515;-82
2021/12/15 14:51:41;;;;;;;4.25;1.90;;;;;;;;;;4986339;28;20068;-83
2021/12/15 14:54:07;;;;;;;9.55;2.15;;;;;;;;;;4986433;28;20129;-83
2021/12/15 14:57:05;;;;;;;9.32;2.00;;;;;;;;;;5006571;28;20049;-83
2021/12/15 14:59:33;;;;;;;4.45;1.70;;;;;;;;;;4943329;28;20050;-83
2021/12/15 15:02:02;;;;;;;7.35;1.83;;;;;;;;;;4979532;28;20383;-82
2021/12/15 15:04:28;;;;;;;3.97;1.77;;;;;;;;;;4966734;28;20137;-88
2021/12/15 15:06:55;;;;;;;6.55;1.85;;;;;;;;;;4974064;28;20050;-88
2021/12/15 15:09:21;;;;;;;6.50;2.00;;;;;;;;;;4966880;28;20450;-87
2021/12/15 15:11:48;;;;;;;6.35;1.77;;;;;;;;;;4993611;28;20069;-89
2021/12/15 15:14:14;;;;;;;4.72;1.95;;;;;;;;;;4988073;28;20045;-88
2021/12/15 15:16:40;;;;;;;9.15;2.90;;;;;;;;;;4960138;28;20039;-88
2021/12/15 15:19:16;;;;;;;9.88;2.33;;;;;;;;;;4981249;28;20046;-88
2021/12/15 15:21:42;;;;;;;5.78;2.80;;;;;;;;;;4974436;28;20096;-88
2021/12/15 15:24:08;;;;;;;5.50;2.30;;;;;;;;;;4977071;28;20498;-88
2021/12/15 15:26:35;;;;;;;5.72;2.70;;;;;;;;;;4961478;28;20038;-88
2021/12/15 15:29:01;;;;;;;6.38;2.55;;;;;;;;;;4984471;28;20051;-89
2021/12/15 15:31:34;;;;;;;5.65;2.53;;;;;;;;;;4956353;28;20042;-88
2021/12/15 15:34:00;;;;;;;6.68;2.13;;;;;;;;;;4980335;28;20065;-88
2021/12/15 15:36:30;;;;;;;7.10;2.88;;;;;;;;;;4962557;28;20046;-89
2021/12/15 15:38:57;;;;;;;7.03;2.22;;;;;;;;;;4961858;28;20486;-88
2021/12/15 15:41:30;;;;;;;4.07;2.00;;;;;;;;;;4964028;28;20499;-88
2021/12/15 15:43:58;;;;;;;6.18;2.22;;;;;;;;;;4977941;28;20130;-88
2021/12/15 15:46:26;;;;;;;5.38;2.10;;;;;;;;;;4965029;28;20046;-89
2021/12/15 15:48:53;;;;;;;7.68;2.40;;;;;;;;;;4970908;28;20643;-88
2021/12/15 15:51:21;;;;;;;7.28;2.30;;;;;;;;;;4993546;28;20050;-89
2021/12/15 15:54:00;;;;;;;7.95;2.30;;;;;;;;;;4988329;28;20039;-86
2021/12/15 15:56:30;;;;;;;8.60;2.20;;;;;;;;;;5013260;28;20042;-87
2021/12/15 15:59:00;;;;;;;10.40;3.20;;;;;;;;;;4986445;28;20053;-87
2021/12/15 16:01:27;;;;;;;8.30;3.60;;;;;;;;;;4990595;28;20035;-87
2021/12/15 16:03:57;;;;;;;4.50;2.50;;;;;;;;;;4993632;28;20042;-89